Time;durP1;ratioP1;P1;durP2;ratioP2;P2;SDS_P1;SDS_P2;PMS_P1;PMS_P2;Temp;Humidity;BMP_temperature;BMP_pressure;BME280_temperature;BME280_humidity;BME280_pressure;Samples;Min_cycle;Max_cycle;Signal;HPM_P1;HPM_P2
2021/03/25 00:00:28;;;;;;;81.28;47.60;;;;;;;6.36;85.90;102070.41;4991396;28;20038;-73
2021/03/25 00:02:55;;;;;;;81.57;46.33;;;;;;;6.36;85.59;102073.88;4983429;28;20033;-73
2021/03/25 00:05:24;;;;;;;86.13;46.67;;;;;;;5.96;85.29;102002.97;4979922;28;20502;-73
2021/03/25 00:07:50;;;;;;;87.55;48.95;;;;;;;6.31;85.81;102067.16;4994181;28;20249;-74
2021/03/25 00:10:19;;;;;;;86.68;46.55;;;;;;;6.31;85.79;102064.53;4986450;28;20030;-73
2021/03/25 00:12:44;;;;;;;87.45;47.17;;;;;;;6.26;85.67;102059.50;4994192;28;20397;-73
2021/03/25 00:15:10;;;;;;;85.57;49.10;;;;;;;6.28;85.29;102058.47;4991690;28;20084;-73
2021/03/25 00:17:36;;;;;;;86.65;47.25;;;;;;;6.28;86.02;102062.91;4994428;28;20045;-72
2021/03/25 00:20:06;;;;;;;89.72;47.50;;;;;;;6.28;85.85;102052.31;4984582;28;20042;-74
2021/03/25 00:22:31;;;;;;;93.03;47.78;;;;;;;6.27;85.88;102059.41;4990369;28;20120;-72
2021/03/25 00:24:57;;;;;;;92.05;48.95;;;;;;;6.26;86.14;102056.84;4994280;28;20038;-74
2021/03/25 00:27:22;;;;;;;89.25;48.83;;;;;;;6.26;85.98;102057.69;4976414;28;20041;-73
2021/03/25 00:29:48;;;;;;;86.60;49.47;;;;;;;6.12;86.65;102026.75;4977451;28;20026;-74
2021/03/25 00:32:13;;;;;;;87.28;48.53;;;;;;;5.95;86.00;101995.09;4987072;28;20038;-73
2021/03/25 00:34:39;;;;;;;89.63;49.05;;;;;;;6.29;86.01;102056.69;4985067;28;20042;-73
2021/03/25 00:37:04;;;;;;;86.57;47.58;;;;;;;6.32;86.42;102058.28;4982038;28;20081;-73
2021/03/25 00:39:30;;;;;;;92.18;48.88;;;;;;;6.34;86.43;102059.88;4986787;28;20048;-74
2021/03/25 00:41:55;;;;;;;91.35;49.88;;;;;;;6.33;85.86;102060.81;4991807;28;20046;-73
2021/03/25 00:44:20;;;;;;;84.40;48.20;;;;;;;5.73;86.71;101954.06;4984101;28;20068;-74
2021/03/25 00:46:46;;;;;;;90.25;48.08;;;;;;;6.33;86.06;102052.88;4975798;28;20045;-73
2021/03/25 00:49:12;;;;;;;83.45;48.97;;;;;;;6.34;85.37;102056.38;4985431;28;20046;-74
2021/03/25 00:51:37;;;;;;;91.95;50.90;;;;;;;6.27;85.95;102051.44;4986926;28;20033;-72
2021/03/25 00:54:04;;;;;;;89.10;49.72;;;;;;;6.28;86.00;102039.06;4983921;28;20049;-73
2021/03/25 00:56:29;;;;;;;89.55;49.70;;;;;;;6.09;86.34;102021.63;4983707;28;20022;-73
2021/03/25 00:58:55;;;;;;;89.65;49.20;;;;;;;5.93;86.16;102008.47;4974426;28;20506;-73
2021/03/25 01:01:21;;;;;;;92.22;49.70;;;;;;;5.96;87.33;102015.34;4973902;28;20040;-73
2021/03/25 01:03:46;;;;;;;90.63;49.78;;;;;;;6.04;86.85;102028.16;4979958;28;20512;-73
2021/03/25 01:06:12;;;;;;;92.80;49.15;;;;;;;6.11;87.55;102040.94;4976108;28;20034;-72
2021/03/25 01:08:37;;;;;;;90.03;50.05;;;;;;;6.08;87.25;102040.28;4977798;28;20046;-75
2021/03/25 01:11:12;;;;;;;88.03;50.00;;;;;;;6.06;87.52;102039.53;4980065;28;20587;-75
2021/03/25 01:13:45;;;;;;;93.32;51.55;;;;;;;5.75;87.82;101999.84;4981165;28;20092;-75
2021/03/25 01:16:17;;;;;;;94.20;49.90;;;;;;;6.02;88.17;102041.53;4974786;28;20069;-73
2021/03/25 01:18:43;;;;;;;94.32;50.90;;;;;;;5.51;88.24;101963.28;4976384;28;20037;-73
2021/03/25 01:21:09;;;;;;;96.43;52.67;;;;;;;5.96;88.23;102048.03;4996178;28;20070;-74
2021/03/25 01:23:34;;;;;;;100.18;52.55;;;;;;;5.93;89.20;102034.94;4976275;28;20046;-73
2021/03/25 01:26:00;;;;;;;101.05;52.17;;;;;;;5.92;88.70;102042.97;4975218;28;20511;-74
2021/03/25 01:28:26;;;;;;;99.70;52.35;;;;;;;5.92;88.77;102032.38;4977651;28;20091;-74
2021/03/25 01:30:51;;;;;;;107.28;52.35;;;;;;;5.90;89.56;102026.34;4978223;28;20030;-74
2021/03/25 01:33:19;;;;;;;100.00;53.25;;;;;;;5.91;88.93;102020.94;4978005;28;20042;-72
2021/03/25 01:35:45;;;;;;;;;;;;;;;5.86;88.99;102022.16;4959651;28;20037;-73
2021/03/25 01:38:13;;;;;;;100.07;53.35;;;;;;;5.84;89.31;102027.53;4982270;28;20182;-74
2021/03/25 01:40:51;;;;;;;99.90;52.83;;;;;;;5.83;88.81;102029.34;4984336;28;20121;-72
2021/03/25 01:43:30;;;;;;;98.05;52.38;;;;;;;5.81;89.77;102025.94;4976386;28;20050;-72
2021/03/25 01:46:00;;;;;;;;;;;;;;;5.78;89.26;102025.28;4976983;28;20038;-74
2021/03/25 01:48:31;;;;;;;111.43;55.63;;;;;;;5.74;89.82;102021.97;4978648;28;19913;-74
2021/03/25 01:51:03;;;;;;;109.25;54.85;;;;;;;5.72;90.55;102023.00;4975381;28;20456;-74
2021/03/25 01:53:47;;;;;;;108.68;54.78;;;;;;;5.72;89.90;102010.63;4977009;28;20041;-74
2021/03/25 01:56:24;;;;;;;105.40;56.17;;;;;;;5.65;90.32;102015.44;4979554;28;20057;-72
2021/03/25 01:59:30;;;;;;;100.85;55.30;;;;;;;5.44;90.96;101979.63;4978518;28;20062;-72
2021/03/25 02:02:16;;;;;;;107.00;55.45;;;;;;;5.64;90.39;102018.16;4975253;28;20571;-72
2021/03/25 02:05:19;;;;;;;105.63;57.00;;;;;;;5.65;90.95;102017.22;4977723;28;20125;-74
2021/03/25 02:07:58;;;;;;;106.07;54.13;;;;;;;5.67;90.41;102013.53;4976872;28;20066;-72
2021/03/25 02:10:36;;;;;;;;;;;;;;;5.69;91.33;102016.09;4982264;28;20117;-72
2021/03/25 02:13:36;;;;;;;115.20;57.25;;;;;;;5.72;91.35;102007.97;4977234;28;19918;-72
2021/03/25 02:16:10;;;;;;;109.97;57.53;;;;;;;5.76;91.50;102014.78;4965366;28;20089;-72
2021/03/25 02:18:51;;;;;;;110.15;59.92;;;;;;;5.80;91.40;102007.50;4980590;28;20355;-72
2021/03/25 02:21:47;;;;;;;117.15;60.33;;;;;;;5.85;91.40;102017.81;4976683;28;20031;-72
2021/03/25 02:24:21;;;;;;;109.75;59.00;;;;;;;5.87;91.37;102011.47;4977367;28;20449;-72
2021/03/25 02:26:55;;;;;;;118.22;58.17;;;;;;;5.94;91.17;102015.47;4976592;28;20037;-72
2021/03/25 02:29:43;;;;;;;115.35;59.53;;;;;;;6.03;91.02;102007.91;4976884;28;20114;-74
2021/03/25 02:32:18;;;;;;;113.05;59.35;;;;;;;6.12;90.98;102010.84;4981174;28;20559;-74
2021/03/25 02:34:50;;;;;;;118.38;62.97;;;;;;;6.09;91.02;101996.94;4975671;28;20034;-72
2021/03/25 02:37:22;;;;;;;116.75;63.88;;;;;;;6.23;91.24;102006.66;4981872;28;20143;-73
2021/03/25 02:39:59;;;;;;;124.40;64.28;;;;;;;6.28;91.40;102008.09;4983860;28;20074;-72
2021/03/25 02:42:31;;;;;;;119.43;63.80;;;;;;;6.30;91.27;102001.84;4983825;28;20042;-73
2021/03/25 02:45:11;;;;;;;113.80;62.00;;;;;;;6.37;91.16;102003.16;4978186;28;20124;-73
2021/03/25 02:47:40;;;;;;;116.10;63.28;;;;;;;6.19;90.44;101963.63;4980698;28;20037;-75
2021/03/25 02:50:35;;;;;;;111.18;59.55;;;;;;;6.45;90.30;101994.72;4985689;28;20014;-73
2021/03/25 02:53:12;;;;;;;120.80;63.60;;;;;;;6.49;90.39;101999.75;4983100;28;20058;-73
2021/03/25 02:55:38;;;;;;;118.63;62.85;;;;;;;6.50;90.47;101997.91;4984171;28;20031;-73
2021/03/25 02:58:14;;;;;;;117.10;60.97;;;;;;;6.22;90.81;101960.78;4979948;28;20053;-73
2021/03/25 03:00:41;;;;;;;115.70;62.78;;;;;;;6.48;90.48;102000.69;4981174;28;20038;-73
2021/03/25 03:03:11;;;;;;;120.90;63.15;;;;;;;6.35;90.46;101982.03;4980893;28;20160;-73
2021/03/25 03:05:39;;;;;;;125.68;62.50;;;;;;;6.40;90.28;101984.38;4993553;28;20112;-73
2021/03/25 03:08:15;;;;;;;119.13;62.30;;;;;;;6.48;90.50;101999.81;4980680;28;20054;-74
2021/03/25 03:10:58;;;;;;;114.55;59.85;;;;;;;6.52;89.78;102010.13;4983584;28;20033;-72
2021/03/25 03:13:28;;;;;;;117.07;61.22;;;;;;;6.51;90.34;102004.94;4981621;28;20022;-73
2021/03/25 03:16:02;;;;;;;123.20;62.97;;;;;;;6.48;90.84;101999.81;4985674;28;20093;-72
2021/03/25 03:18:39;;;;;;;116.05;62.33;;;;;;;6.48;90.56;101990.06;4981864;28;20037;-73
2021/03/25 03:21:08;;;;;;;122.20;63.42;;;;;;;6.52;90.99;101999.50;4980736;28;20150;-73
2021/03/25 03:23:34;;;;;;;124.65;64.40;;;;;;;6.49;91.21;101998.88;4984406;28;20103;-73
2021/03/25 03:26:14;;;;;;;123.93;65.82;;;;;;;6.36;91.93;101974.94;4981647;28;20057;-74
2021/03/25 03:28:49;;;;;;;116.10;65.55;;;;;;;6.35;91.36;101971.44;4987728;28;20034;-72
2021/03/25 03:31:31;;;;;;;125.70;64.78;;;;;;;6.33;91.32;101953.94;4976676;28;20467;-72
2021/03/25 03:34:04;;;;;;;127.15;66.38;;;;;;;6.51;91.65;101992.53;4982115;28;20033;-72
2021/03/25 03:36:31;;;;;;;128.18;66.05;;;;;;;6.53;92.12;102003.03;4983179;28;20129;-72
2021/03/25 03:39:03;;;;;;;130.38;66.53;;;;;;;6.58;91.89;101993.00;4982746;28;20061;-72
2021/03/25 03:41:34;;;;;;;128.35;65.88;;;;;;;6.55;91.72;101990.53;4981062;28;20098;-72
2021/03/25 03:44:06;;;;;;;132.02;69.60;;;;;;;6.39;92.54;101972.94;4979067;28;20264;-72
2021/03/25 03:46:32;;;;;;;128.25;69.47;;;;;;;6.51;92.77;102003.16;4979469;28;20034;-73
2021/03/25 03:49:10;;;;;;;140.27;69.40;;;;;;;6.50;92.52;101988.19;4979676;28;20069;-74
2021/03/25 03:51:52;;;;;;;122.15;65.10;;;;;;;6.54;93.14;101994.97;4995893;28;20034;-72
2021/03/25 03:54:18;;;;;;;131.25;66.20;;;;;;;6.58;93.23;101993.84;4978557;28;21002;-74
2021/03/25 03:57:02;;;;;;;129.00;67.93;;;;;;;6.59;93.07;101992.03;4978932;28;20473;-74
2021/03/25 03:59:47;;;;;;;134.40;68.55;;;;;;;6.60;92.95;101988.41;5001121;28;20025;-73
2021/03/25 04:02:34;;;;;;;131.90;68.00;;;;;;;6.44;93.37;101956.75;4985140;28;20467;-72
2021/03/25 04:05:12;;;;;;;125.27;67.17;;;;;;;6.56;93.25;101971.03;4993236;28;20030;-72
2021/03/25 04:07:41;;;;;;;119.30;66.53;;;;;;;6.58;93.38;101972.63;4995696;28;20524;-72
2021/03/25 04:10:16;;;;;;;140.98;69.28;;;;;;;6.62;93.80;101977.72;4990813;28;20042;-72
2021/03/25 04:12:46;;;;;;;134.55;69.68;;;;;;;4.56;94.05;101645.34;4985494;28;20026;-72
2021/03/25 04:15:19;;;;;;;125.15;67.63;;;;;;;6.60;93.81;101977.81;4987400;28;20042;-72
2021/03/25 04:17:52;;;;;;;136.77;69.03;;;;;;;6.54;94.40;101976.41;4984023;28;20014;-72
2021/03/25 04:20:22;;;;;;;133.77;69.07;;;;;;;6.61;94.17;101970.72;4973544;28;20030;-72
2021/03/25 04:22:55;;;;;;;144.63;71.05;;;;;;;6.41;94.06;101952.50;4986025;28;20469;-73
2021/03/25 04:25:28;;;;;;;132.68;68.20;;;;;;;6.53;94.34;101976.50;4991384;28;20029;-74
2021/03/25 04:28:07;;;;;;;140.80;69.75;;;;;;;6.57;95.10;101978.88;4990365;28;20038;-74
2021/03/25 04:30:38;;;;;;;139.32;71.43;;;;;;;6.49;95.32;101975.00;4985803;28;20038;-73
2021/03/25 04:33:04;;;;;;;145.40;72.53;;;;;;;6.47;95.32;101971.59;4984437;28;20061;-73
2021/03/25 04:35:30;;;;;;;142.90;73.32;;;;;;;6.51;96.12;101978.41;4989140;28;20084;-72
2021/03/25 04:37:58;;;;;;;139.75;71.13;;;;;;;6.50;96.29;101972.28;4983713;28;20030;-72
2021/03/25 04:40:30;;;;;;;152.00;71.88;;;;;;;6.56;95.64;101969.19;4986912;28;20477;-72
2021/03/25 04:42:56;;;;;;;139.52;70.10;;;;;;;6.42;96.11;101948.03;4982970;28;20077;-74
2021/03/25 04:45:29;;;;;;;145.70;74.60;;;;;;;6.57;96.74;101965.59;4992949;28;20113;-72
2021/03/25 04:47:59;;;;;;;148.10;74.68;;;;;;;6.53;96.52;101966.75;4983220;28;20109;-72
2021/03/25 04:50:30;;;;;;;150.65;74.95;;;;;;;6.55;97.05;101961.34;4993419;28;20022;-72
2021/03/25 04:53:17;;;;;;;147.13;74.93;;;;;;;6.55;96.96;101962.19;4984165;28;20076;-73
2021/03/25 04:55:43;;;;;;;149.30;76.27;;;;;;;6.56;96.94;101960.41;4984055;28;20364;-73
2021/03/25 04:58:12;;;;;;;152.50;75.80;;;;;;;6.57;97.41;101955.00;4993922;28;20053;-72
2021/03/25 05:00:43;;;;;;;167.77;77.93;;;;;;;6.58;97.80;101958.50;4997113;28;20026;-72
2021/03/25 05:03:16;;;;;;;159.07;77.00;;;;;;;6.55;97.36;101956.06;4985179;28;20030;-73
2021/03/25 05:05:41;;;;;;;149.40;74.32;;;;;;;6.55;97.37;101964.00;4992207;28;20121;-72
2021/03/25 05:08:11;;;;;;;158.75;74.75;;;;;;;6.57;97.37;101964.78;4985362;28;20066;-73
2021/03/25 05:10:44;;;;;;;152.57;73.47;;;;;;;6.58;97.31;101961.16;4984723;28;20041;-74
2021/03/25 05:13:24;;;;;;;148.45;74.07;;;;;;;6.56;97.36;101971.03;4985504;28;20037;-73
2021/03/25 05:16:08;;;;;;;157.05;73.95;;;;;;;6.56;96.84;101968.38;4991372;28;20042;-73
2021/03/25 05:18:36;;;;;;;161.30;76.40;;;;;;;6.50;97.60;101956.34;4986848;28;20034;-74
2021/03/25 05:21:08;;;;;;;162.75;76.15;;;;;;;6.40;98.69;101961.41;4989913;28;20034;-73
2021/03/25 05:24:01;;;;;;;159.90;77.82;;;;;;;6.37;98.68;101956.28;4967533;28;20022;-72
2021/03/25 05:26:34;;;;;;;165.48;77.22;;;;;;;6.37;99.07;101958.94;4982277;28;20516;-74
2021/03/25 05:29:04;;;;;;;162.70;75.80;;;;;;;6.44;98.78;101948.78;4995578;28;20400;-74
2021/03/25 05:31:33;;;;;;;161.05;78.00;;;;;;;6.43;98.57;101947.94;4984277;28;20088;-72
2021/03/25 05:34:02;;;;;;;169.35;79.32;;;;;;;6.42;98.35;101953.34;4991947;28;20025;-72
2021/03/25 05:36:29;;;;;;;158.25;75.95;;;;;;;6.41;98.65;101947.19;4986970;28;20117;-72
2021/03/25 05:38:55;;;;;;;165.55;76.25;;;;;;;6.27;98.92;101928.66;4981897;28;20026;-73
2021/03/25 05:41:41;;;;;;;181.23;83.05;;;;;;;6.39;99.64;101937.59;4961976;28;20096;-73
2021/03/25 05:44:09;;;;;;;180.35;79.28;;;;;;;6.37;99.92;101937.72;4977169;28;20034;-72
2021/03/25 05:46:53;;;;;;;168.02;79.10;;;;;;;6.41;99.55;101935.72;4981578;28;20057;-72
2021/03/25 05:49:19;;;;;;;182.13;78.50;;;;;;;6.48;98.67;101942.34;4989092;28;20030;-73
2021/03/25 05:52:09;;;;;;;154.23;76.78;;;;;;;6.33;98.56;101911.50;4989665;28;20018;-73
2021/03/25 05:54:58;;;;;;;162.20;77.10;;;;;;;6.41;98.63;101933.06;4983487;28;20511;-72
2021/03/25 05:57:40;;;;;;;172.43;76.60;;;;;;;6.43;98.90;101952.38;4979377;28;20026;-73
2021/03/25 06:00:25;;;;;;;156.75;73.93;;;;;;;6.43;99.18;101968.28;4980584;28;20038;-72
2021/03/25 06:03:03;;;;;;;158.93;76.10;;;;;;;6.49;98.68;101967.03;4986915;28;20022;-72
2021/03/25 06:05:29;;;;;;;140.98;72.00;;;;;;;6.35;98.68;101941.44;4981818;28;20658;-73
2021/03/25 06:08:03;;;;;;;156.95;75.40;;;;;;;6.58;98.80;101969.13;4979051;28;20050;-73
2021/03/25 06:10:52;;;;;;;142.80;71.18;;;;;;;6.71;97.88;101967.38;4997420;28;20105;-73
2021/03/25 06:13:44;;;;;;;130.02;68.80;;;;;;;6.86;97.34;101961.97;4988409;28;20035;-73
2021/03/25 06:16:19;;;;;;;134.48;71.50;;;;;;;7.01;97.03;101971.59;4990755;28;20030;-72
2021/03/25 06:19:18;;;;;;;131.52;70.28;;;;;;;7.03;96.24;101943.16;4987948;28;20030;-73
2021/03/25 06:22:02;;;;;;;116.57;65.80;;;;;;;7.44;94.72;101967.00;5000091;28;20100;-72
2021/03/25 06:24:43;;;;;;;115.05;60.80;;;;;;;7.61;93.49;101964.03;4989026;28;20044;-73
2021/03/25 06:27:24;;;;;;;107.85;59.63;;;;;;;7.66;92.96;101972.56;4990366;28;20032;-73
2021/03/25 06:29:54;;;;;;;116.35;63.30;;;;;;;7.62;93.11;101975.50;5002861;28;20030;-76
2021/03/25 06:32:28;;;;;;;115.50;61.33;;;;;;;7.63;93.17;101967.44;4979918;28;20940;-75
2021/03/25 06:35:11;;;;;;;106.00;58.25;;;;;;;7.63;92.81;101970.09;4974560;28;20516;-73
2021/03/25 06:38:06;;;;;;;106.97;58.40;;;;;;;7.58;92.54;101979.34;4995303;28;20113;-73
2021/03/25 06:40:44;;;;;;;111.28;58.67;;;;;;;7.54;93.63;101983.16;4957096;28;20073;-74
2021/03/25 06:43:24;;;;;;;109.43;59.92;;;;;;;7.56;93.50;101981.25;4985375;28;20034;-73
2021/03/25 06:46:05;;;;;;;108.25;60.05;;;;;;;7.62;93.47;101992.31;4988945;28;20101;-73
2021/03/25 06:48:33;;;;;;;110.50;58.08;;;;;;;7.73;92.59;101988.91;4983067;28;20512;-73
2021/03/25 06:51:05;;;;;;;100.35;56.63;;;;;;;7.80;92.63;101990.19;4978924;28;20268;-74
2021/03/25 06:53:33;;;;;;;104.82;57.40;;;;;;;7.81;92.16;101981.25;4975590;28;20563;-74
2021/03/25 06:56:09;;;;;;;101.43;55.47;;;;;;;7.86;91.72;101985.41;4976233;28;20491;-74
2021/03/25 06:58:50;;;;;;;98.88;55.75;;;;;;;8.01;91.37;101978.97;4979045;28;20135;-73
2021/03/25 07:01:40;;;;;;;100.50;56.47;;;;;;;8.23;90.20;101983.63;4981297;28;20033;-73
2021/03/25 07:04:20;;;;;;;96.55;54.17;;;;;;;8.38;89.22;101988.81;4980027;28;20274;-73
2021/03/25 07:06:46;;;;;;;89.85;53.35;;;;;;;8.44;88.23;101977.75;4973059;28;20485;-73
2021/03/25 07:09:13;;;;;;;85.53;51.78;;;;;;;8.67;87.84;102005.38;4980287;28;20188;-73
2021/03/25 07:11:40;;;;;;;89.03;52.33;;;;;;;8.59;87.69;102007.72;4981586;28;20039;-73
2021/03/25 07:14:10;;;;;;;95.07;51.67;;;;;;;8.43;88.26;101965.41;4983719;28;20034;-71
2021/03/25 07:16:43;;;;;;;82.82;49.90;;;;;;;8.96;87.48;102009.50;4983318;28;20101;-71
2021/03/25 07:19:18;;;;;;;81.43;50.08;;;;;;;9.56;84.59;102014.81;4982432;28;20035;-72
2021/03/25 07:21:52;;;;;;;84.78;48.92;;;;;;;10.20;83.04;102010.72;4987179;28;20034;-71
2021/03/25 07:24:23;;;;;;;78.05;47.10;;;;;;;10.69;79.41;102008.63;4984396;28;20030;-72
2021/03/25 07:26:58;;;;;;;73.85;45.30;;;;;;;11.11;78.05;102006.06;4981363;28;21846;-72
2021/03/25 07:29:35;;;;;;;69.47;43.85;;;;;;;11.07;77.62;102006.41;4976492;28;20026;-72
2021/03/25 07:32:04;;;;;;;72.93;44.72;;;;;;;10.91;78.21;101997.03;4965242;28;20030;-72
2021/03/25 07:34:36;;;;;;;;;;;;;;;10.80;77.61;101995.25;4981086;28;20026;-73
2021/03/25 07:37:04;;;;;;;71.93;42.95;;;;;;;10.57;79.41;102007.78;4972049;28;20381;-72
2021/03/25 07:39:34;;;;;;;73.60;44.83;;;;;;;10.32;80.03;102000.88;4984900;28;20100;-71
2021/03/25 07:42:00;;;;;;;76.70;45.08;;;;;;;10.06;80.69;101983.34;4985926;28;20030;-72
2021/03/25 07:44:38;;;;;;;76.68;46.40;;;;;;;10.20;80.80;102008.91;4983790;28;20040;-73
2021/03/25 07:47:32;;;;;;;70.45;45.17;;;;;;;9.97;82.21;102013.41;4981466;28;20053;-73
2021/03/25 07:50:30;;;;;;;86.22;48.65;;;;;;;9.70;83.42;102014.59;4982872;28;20030;-74
2021/03/25 07:52:56;;;;;;;85.72;47.72;;;;;;;9.55;84.85;102015.75;4981776;28;20089;-73
2021/03/25 07:55:28;;;;;;;83.78;48.78;;;;;;;9.42;84.61;102023.84;4982482;28;20038;-74
2021/03/25 07:57:55;;;;;;;79.40;48.85;;;;;;;9.27;86.21;102028.50;4981272;28;20434;-73
2021/03/25 08:00:33;;;;;;;84.82;49.92;;;;;;;8.92;87.28;101995.56;4975728;28;20070;-73
2021/03/25 08:03:15;;;;;;;79.93;46.90;;;;;;;9.02;87.40;102030.34;4974994;28;20518;-73
2021/03/25 08:05:42;;;;;;;80.97;48.53;;;;;;;8.86;88.36;102017.31;4971876;28;20516;-73
2021/03/25 08:08:30;;;;;;;86.75;52.67;;;;;;;8.92;89.03;102045.28;4979506;28;20508;-73
2021/03/25 08:11:17;;;;;;;89.68;52.03;;;;;;;8.81;88.69;102033.63;4974244;28;20412;-72
2021/03/25 08:14:17;;;;;;;91.03;50.60;;;;;;;8.80;89.24;102031.91;4958827;28;21126;-72
2021/03/25 08:16:45;;;;;;;87.63;51.60;;;;;;;8.37;89.77;101987.09;4969088;28;20037;-72
2021/03/25 08:19:21;;;;;;;90.18;51.60;;;;;;;8.71;89.31;102025.44;4979263;28;20035;-73
2021/03/25 08:22:08;;;;;;;88.05;50.88;;;;;;;8.75;90.21;102030.56;4972622;28;20034;-72
2021/03/25 08:25:04;;;;;;;89.70;52.13;;;;;;;8.78;90.76;102033.84;4972333;28;20038;-72
2021/03/25 08:27:55;;;;;;;97.45;52.67;;;;;;;8.83;91.84;102031.69;4966243;28;20034;-72
2021/03/25 08:30:47;;;;;;;81.53;51.70;;;;;;;8.93;90.41;102031.00;4960581;28;20046;-72
2021/03/25 08:33:59;;;;;;;83.55;50.03;;;;;;;9.09;89.78;102030.75;4974053;28;20157;-72
2021/03/25 08:36:56;;;;;;;87.45;49.28;;;;;;;9.28;89.18;102035.53;4967999;28;20033;-72
2021/03/25 08:39:48;;;;;;;80.40;49.58;;;;;;;9.25;89.21;102039.25;4971159;28;20031;-73
2021/03/25 08:42:40;;;;;;;80.90;50.60;;;;;;;9.49;89.09;102041.91;4968451;28;20034;-72
2021/03/25 08:45:40;;;;;;;79.47;47.42;;;;;;;9.93;87.16;102042.09;4965873;28;20022;-72
2021/03/25 08:48:36;;;;;;;78.10;46.50;;;;;;;9.95;85.23;102028.66;4951689;28;20057;-73
2021/03/25 08:51:06;;;;;;;71.03;44.13;;;;;;;10.24;84.60;102046.88;4974042;28;20049;-72
2021/03/25 08:53:47;;;;;;;72.82;45.88;;;;;;;10.18;84.47;102047.34;4965277;28;20121;-73
2021/03/25 08:56:30;;;;;;;72.88;46.92;;;;;;;10.10;84.82;102047.94;4979087;28;20540;-72
2021/03/25 08:59:00;;;;;;;76.72;46.25;;;;;;;10.02;85.17;102050.38;4973283;28;20129;-72
2021/03/25 09:01:41;;;;;;;75.03;48.35;;;;;;;9.87;86.47;102013.28;4970586;28;20038;-72
2021/03/25 09:04:09;;;;;;;81.25;48.28;;;;;;;10.00;85.22;102049.63;4970711;28;20088;-72
2021/03/25 09:06:36;;;;;;;;;;;;;;;10.00;85.46;102042.47;4966603;28;20038;-71
2021/03/25 09:09:16;;;;;;;79.93;45.78;;;;;;;9.85;84.82;102014.34;4987492;28;20709;-72
2021/03/25 09:11:42;;;;;;;79.30;49.03;;;;;;;10.18;85.34;102037.50;4972212;28;20043;-73
2021/03/25 09:14:22;;;;;;;79.57;49.28;;;;;;;10.35;84.60;102033.53;4970842;28;20037;-73
2021/03/25 09:16:49;;;;;;;83.65;52.20;;;;;;;10.44;84.35;102036.44;4968084;28;20026;-73
2021/03/25 09:19:27;;;;;;;99.85;55.47;;;;;;;10.39;84.34;102034.97;4968587;28;20068;-73
2021/03/25 09:21:55;;;;;;;87.28;56.80;;;;;;;10.33;84.56;102002.56;4967589;28;20490;-73
2021/03/25 09:24:20;;;;;;;;;;;;;;;10.60;84.76;102034.25;4974022;28;20030;-73
2021/03/25 09:27:06;;;;;;;87.03;55.60;;;;;;;10.96;83.79;102036.72;4966061;28;19973;-74
2021/03/25 09:30:00;;;;;;;87.55;55.53;;;;;;;11.15;82.36;102036.88;4969142;28;20076;-73
2021/03/25 09:32:36;;;;;;;100.22;60.42;;;;;;;11.00;82.24;102006.94;4972002;28;20045;-73
2021/03/25 09:35:23;;;;;;;99.57;64.30;;;;;;;11.08;81.60;102008.97;4972369;28;20030;-73
2021/03/25 09:37:53;;;;;;;100.82;62.83;;;;;;;11.39;81.49;102025.13;4968772;28;20030;-73
2021/03/25 09:40:33;;;;;;;97.18;59.28;;;;;;;11.46;80.08;102025.44;4965488;28;20343;-73
2021/03/25 09:43:37;;;;;;;93.15;56.72;;;;;;;11.48;81.19;102028.81;4967934;28;20065;-73
2021/03/25 09:46:29;;;;;;;87.18;55.08;;;;;;;11.38;81.26;102034.09;4968583;28;20046;-73
2021/03/25 09:49:13;;;;;;;86.32;53.72;;;;;;;11.28;82.40;102041.19;4976035;28;20591;-73
2021/03/25 09:51:38;;;;;;;83.47;53.53;;;;;;;11.11;82.42;102038.13;4991150;28;20030;-73
2021/03/25 09:54:17;;;;;;;78.72;50.03;;;;;;;11.05;83.15;102037.78;4978592;28;20400;-73
2021/03/25 09:56:42;;;;;;;79.13;50.25;;;;;;;10.53;83.83;102001.88;4974147;28;20053;-73
2021/03/25 10:00:06;;;;;;;76.53;49.60;;;;;;;10.65;84.36;102033.88;4976162;28;20042;-73
2021/03/25 10:02:41;;;;;;;73.03;47.22;;;;;;;10.51;84.48;102032.31;4953586;28;20155;-74
2021/03/25 10:05:24;;;;;;;69.07;45.70;;;;;;;10.51;84.80;102030.50;4949317;28;20039;-74
2021/03/25 10:07:55;;;;;;;68.88;45.70;;;;;;;10.40;84.97;102025.19;4968202;28;20097;-74
2021/03/25 10:10:23;;;;;;;67.22;46.83;;;;;;;10.54;84.45;102024.91;4972063;28;20045;-73
2021/03/25 10:13:00;;;;;;;;;;;;;;;10.59;85.39;102032.53;4974077;28;20054;-74
2021/03/25 10:15:41;;;;;;;58.25;39.78;;;;;;;10.58;85.24;102028.19;4986598;28;20004;-74
2021/03/25 10:18:16;;;;;;;49.28;35.25;;;;;;;10.52;86.23;102032.19;4973666;28;20052;-74
2021/03/25 10:20:57;;;;;;;51.22;34.40;;;;;;;10.44;86.38;102025.78;4970939;28;20030;-74
2021/03/25 10:23:33;;;;;;;49.90;34.50;;;;;;;10.43;86.18;102024.94;4981468;28;20164;-73
2021/03/25 10:26:01;;;;;;;50.45;34.50;;;;;;;10.48;85.73;102024.56;4966826;28;20064;-73
2021/03/25 10:28:28;;;;;;;;;;;;;;;10.34;86.89;102034.50;4982519;28;20050;-73
2021/03/25 10:31:06;;;;;;;70.55;39.33;;;;;;;10.27;87.16;102034.13;4975990;28;19933;-73
2021/03/25 10:33:34;;;;;;;73.53;43.88;;;;;;;10.20;87.67;102040.06;4973850;28;20038;-73
2021/03/25 10:36:03;;;;;;;71.05;43.47;;;;;;;10.11;87.86;102038.97;4969542;28;20034;-73
2021/03/25 10:38:51;;;;;;;68.82;40.83;;;;;;;10.14;88.00;102029.88;4971630;28;20030;-73
2021/03/25 10:41:20;;;;;;;68.65;43.03;;;;;;;10.06;89.24;102036.69;4972585;28;20552;-73
2021/03/25 10:43:49;;;;;;;71.38;42.25;;;;;;;10.06;88.77;102038.47;4973779;28;20030;-73
2021/03/25 10:46:30;;;;;;;73.93;42.22;;;;;;;10.12;89.17;102038.00;4971529;28;20497;-74
2021/03/25 10:49:04;;;;;;;73.00;43.17;;;;;;;10.09;88.68;102043.56;4972385;28;20030;-73
2021/03/25 10:51:32;;;;;;;86.40;49.20;;;;;;;10.01;89.58;102046.00;4967927;28;20662;-73
2021/03/25 10:54:02;;;;;;;79.55;45.28;;;;;;;9.85;88.63;102017.88;4972974;28;20037;-73
2021/03/25 10:56:33;;;;;;;77.72;45.53;;;;;;;10.06;88.75;102043.81;4976974;28;20038;-73
2021/03/25 10:59:19;;;;;;;80.10;43.67;;;;;;;10.01;89.19;102043.34;4982860;28;20038;-72
2021/03/25 11:01:56;;;;;;;83.68;45.22;;;;;;;9.94;91.25;102050.97;4982948;28;20022;-75
2021/03/25 11:04:29;;;;;;;81.63;43.80;;;;;;;9.86;91.37;102050.69;4982835;28;20065;-73
2021/03/25 11:06:55;;;;;;;85.63;45.35;;;;;;;9.75;92.02;102044.38;4978828;28;20417;-73
2021/03/25 11:09:27;;;;;;;91.13;47.25;;;;;;;9.67;92.32;102051.25;4979939;28;20050;-74
2021/03/25 11:11:59;;;;;;;86.80;47.30;;;;;;;9.43;93.28;102022.88;4978292;28;20030;-74
2021/03/25 11:14:40;;;;;;;92.40;46.80;;;;;;;9.58;92.92;102045.69;4981192;28;20053;-75
2021/03/25 11:17:15;;;;;;;80.05;43.70;;;;;;;9.60;92.79;102045.56;4977705;28;20041;-74
2021/03/25 11:19:45;;;;;;;78.10;41.55;;;;;;;9.58;92.27;102034.16;4979227;28;20042;-74
2021/03/25 11:22:12;;;;;;;78.50;40.47;;;;;;;9.61;92.76;102044.59;4982042;28;20039;-75
2021/03/25 11:24:39;;;;;;;79.38;42.53;;;;;;;9.62;92.71;102040.97;4977568;28;20034;-75
2021/03/25 11:27:14;;;;;;;68.03;40.25;;;;;;;9.43;91.64;102005.06;4981128;28;20038;-74
2021/03/25 11:29:42;;;;;;;69.40;39.25;;;;;;;9.67;91.77;102036.16;4979360;28;20030;-74
2021/03/25 11:32:33;;;;;;;74.15;39.60;;;;;;;9.59;91.20;102039.38;4976709;28;20472;-73
2021/03/25 11:35:33;;;;;;;75.00;39.33;;;;;;;9.68;91.04;102036.97;4965336;28;20232;-74
2021/03/25 11:38:20;;;;;;;70.07;39.53;;;;;;;9.75;91.30;102043.56;4976816;28;20163;-75
2021/03/25 11:40:47;;;;;;;77.60;40.47;;;;;;;9.91;91.12;102048.53;4970517;28;20541;-74
2021/03/25 11:43:21;;;;;;;67.85;37.45;;;;;;;9.91;89.87;102017.38;4977871;28;20038;-75
2021/03/25 11:45:49;;;;;;;62.58;35.83;;;;;;;10.23;88.91;102031.84;4968841;28;20424;-74
2021/03/25 11:48:41;;;;;;;55.80;33.75;;;;;;;10.47;88.11;102036.22;4975872;28;20038;-74
2021/03/25 11:51:15;;;;;;;53.47;32.05;;;;;;;10.52;86.55;102036.66;4975082;28;20035;-74